sensor_id;sensor_type;location;lat;lon;timestamp;P1;durP1;ratioP1;P2;durP2;ratioP2
15342;SDS011;7771;48.478;8.936;2022-10-16T00:01:22;2.22;;;1.48;;
15342;SDS011;7771;48.478;8.936;2022-10-16T00:03:48;2.63;;;1.60;;
15342;SDS011;7771;48.478;8.936;2022-10-16T00:06:16;2.07;;;1.30;;
15342;SDS011;7771;48.478;8.936;2022-10-16T00:08:43;1.90;;;1.27;;
15342;SDS011;7771;48.478;8.936;2022-10-16T00:11:11;1.60;;;1.20;;
15342;SDS011;7771;48.478;8.936;2022-10-16T00:13:37;2.47;;;1.20;;
15342;SDS011;7771;48.478;8.936;2022-10-16T00:16:03;3.03;;;1.30;;
15342;SDS011;7771;48.478;8.936;2022-10-16T00:18:30;3.87;;;1.20;;
15342;SDS011;7771;48.478;8.936;2022-10-16T00:21:01;2.87;;;1.57;;
15342;SDS011;7771;48.478;8.936;2022-10-16T00:23:31;4.80;;;1.50;;
15342;SDS011;7771;48.478;8.936;2022-10-16T00:25:59;3.17;;;1.63;;
15342;SDS011;7771;48.478;8.936;2022-10-16T00:28:25;2.13;;;1.63;;
15342;SDS011;7771;48.478;8.936;2022-10-16T00:30:52;1.90;;;1.40;;
15342;SDS011;7771;48.478;8.936;2022-10-16T00:33:18;1.93;;;1.30;;
15342;SDS011;7771;48.478;8.936;2022-10-16T00:35:45;2.47;;;1.50;;
15342;SDS011;7771;48.478;8.936;2022-10-16T00:38:11;2.83;;;1.80;;
15342;SDS011;7771;48.478;8.936;2022-10-16T00:40:39;2.13;;;1.67;;
15342;SDS011;7771;48.478;8.936;2022-10-16T00:43:13;1.23;;;1.13;;
15342;SDS011;7771;48.478;8.936;2022-10-16T00:45:38;2.80;;;1.93;;
15342;SDS011;7771;48.478;8.936;2022-10-16T00:48:06;1.70;;;1.50;;
15342;SDS011;7771;48.478;8.936;2022-10-16T00:50:33;2.43;;;1.30;;
15342;SDS011;7771;48.478;8.936;2022-10-16T00:53:01;2.20;;;1.50;;
15342;SDS011;7771;48.478;8.936;2022-10-16T00:55:28;3.77;;;1.83;;
15342;SDS011;7771;48.478;8.936;2022-10-16T00:57:55;2.70;;;1.50;;
15342;SDS011;7771;48.478;8.936;2022-10-16T01:00:24;2.20;;;2.00;;
15342;SDS011;7771;48.478;8.936;2022-10-16T01:02:53;2.57;;;1.90;;
15342;SDS011;7771;48.478;8.936;2022-10-16T01:05:20;3.57;;;1.90;;
15342;SDS011;7771;48.478;8.936;2022-10-16T01:07:53;4.47;;;2.03;;
15342;SDS011;7771;48.478;8.936;2022-10-16T01:10:25;4.53;;;2.50;;
15342;SDS011;7771;48.478;8.936;2022-10-16T01:13:10;2.70;;;1.80;;
15342;SDS011;7771;48.478;8.936;2022-10-16T01:15:39;4.03;;;1.80;;
15342;SDS011;7771;48.478;8.936;2022-10-16T01:18:08;1.43;;;1.20;;
15342;SDS011;7771;48.478;8.936;2022-10-16T01:20:37;8.27;;;1.50;;
15342;SDS011;7771;48.478;8.936;2022-10-16T01:23:05;3.83;;;1.60;;
15342;SDS011;7771;48.478;8.936;2022-10-16T01:28:20;2.17;;;1.50;;
15342;SDS011;7771;48.478;8.936;2022-10-16T01:30:45;4.10;;;1.53;;
15342;SDS011;7771;48.478;8.936;2022-10-16T01:33:16;4.10;;;1.37;;
15342;SDS011;7771;48.478;8.936;2022-10-16T01:35:42;2.07;;;1.70;;
15342;SDS011;7771;48.478;8.936;2022-10-16T01:38:12;2.83;;;1.50;;
15342;SDS011;7771;48.478;8.936;2022-10-16T01:40:53;2.83;;;1.60;;
15342;SDS011;7771;48.478;8.936;2022-10-16T01:43:19;3.50;;;1.37;;
15342;SDS011;7771;48.478;8.936;2022-10-16T01:45:45;4.43;;;1.47;;
15342;SDS011;7771;48.478;8.936;2022-10-16T01:48:12;2.30;;;1.83;;
15342;SDS011;7771;48.478;8.936;2022-10-16T01:50:39;3.73;;;1.50;;
15342;SDS011;7771;48.478;8.936;2022-10-16T01:53:07;2.33;;;1.80;;
15342;SDS011;7771;48.478;8.936;2022-10-16T01:55:36;2.27;;;2.07;;
15342;SDS011;7771;48.478;8.936;2022-10-16T01:58:01;3.13;;;2.80;;
15342;SDS011;7771;48.478;8.936;2022-10-16T02:00:28;3.57;;;2.60;;
15342;SDS011;7771;48.478;8.936;2022-10-16T02:02:56;2.50;;;2.30;;
15342;SDS011;7771;48.478;8.936;2022-10-16T02:05:29;2.50;;;2.30;;
15342;SDS011;7771;48.478;8.936;2022-10-16T02:07:58;6.17;;;5.33;;
15342;SDS011;7771;48.478;8.936;2022-10-16T02:10:25;4.83;;;3.30;;
15342;SDS011;7771;48.478;8.936;2022-10-16T02:12:55;2.70;;;2.50;;
15342;SDS011;7771;48.478;8.936;2022-10-16T02:15:20;2.90;;;2.60;;
15342;SDS011;7771;48.478;8.936;2022-10-16T02:17:48;3.63;;;3.33;;
15342;SDS011;7771;48.478;8.936;2022-10-16T02:20:15;3.97;;;3.20;;
15342;SDS011;7771;48.478;8.936;2022-10-16T02:22:43;2.37;;;2.17;;
15342;SDS011;7771;48.478;8.936;2022-10-16T02:25:11;4.53;;;1.90;;
15342;SDS011;7771;48.478;8.936;2022-10-16T02:27:40;4.53;;;1.87;;
15342;SDS011;7771;48.478;8.936;2022-10-16T02:30:06;2.00;;;1.80;;
15342;SDS011;7771;48.478;8.936;2022-10-16T02:32:33;2.70;;;1.63;;
15342;SDS011;7771;48.478;8.936;2022-10-16T02:35:00;2.10;;;1.40;;
15342;SDS011;7771;48.478;8.936;2022-10-16T02:37:27;2.87;;;2.10;;
15342;SDS011;7771;48.478;8.936;2022-10-16T02:39:53;2.40;;;1.23;;
15342;SDS011;7771;48.478;8.936;2022-10-16T02:42:20;2.23;;;1.50;;
15342;SDS011;7771;48.478;8.936;2022-10-16T02:44:46;3.80;;;1.80;;
15342;SDS011;7771;48.478;8.936;2022-10-16T02:47:13;1.83;;;1.60;;
15342;SDS011;7771;48.478;8.936;2022-10-16T02:49:40;2.47;;;1.80;;
15342;SDS011;7771;48.478;8.936;2022-10-16T02:52:06;2.30;;;1.60;;
15342;SDS011;7771;48.478;8.936;2022-10-16T02:54:33;1.97;;;1.57;;
15342;SDS011;7771;48.478;8.936;2022-10-16T02:56:59;2.13;;;1.70;;
15342;SDS011;7771;48.478;8.936;2022-10-16T02:59:27;1.57;;;1.30;;
15342;SDS011;7771;48.478;8.936;2022-10-16T03:01:54;5.37;;;1.60;;
15342;SDS011;7771;48.478;8.936;2022-10-16T03:04:21;3.07;;;2.03;;
15342;SDS011;7771;48.478;8.936;2022-10-16T03:06:49;3.20;;;1.83;;
15342;SDS011;7771;48.478;8.936;2022-10-16T03:09:15;5.00;;;2.30;;
15342;SDS011;7771;48.478;8.936;2022-10-16T03:11:42;2.93;;;1.90;;
15342;SDS011;7771;48.478;8.936;2022-10-16T03:14:09;2.13;;;1.53;;
15342;SDS011;7771;48.478;8.936;2022-10-16T03:16:37;1.30;;;1.20;;
15342;SDS011;7771;48.478;8.936;2022-10-16T03:19:04;3.20;;;1.30;;
15342;SDS011;7771;48.478;8.936;2022-10-16T03:21:31;1.67;;;1.30;;
15342;SDS011;7771;48.478;8.936;2022-10-16T03:23:59;2.60;;;1.30;;
15342;SDS011;7771;48.478;8.936;2022-10-16T03:26:26;1.67;;;1.37;;
15342;SDS011;7771;48.478;8.936;2022-10-16T03:28:53;1.33;;;1.13;;
15342;SDS011;7771;48.478;8.936;2022-10-16T03:31:21;4.07;;;1.40;;
15342;SDS011;7771;48.478;8.936;2022-10-16T03:33:47;3.77;;;1.27;;
15342;SDS011;7771;48.478;8.936;2022-10-16T03:36:14;2.30;;;1.40;;
15342;SDS011;7771;48.478;8.936;2022-10-16T03:38:41;2.80;;;2.33;;
15342;SDS011;7771;48.478;8.936;2022-10-16T03:41:07;7.47;;;1.60;;
15342;SDS011;7771;48.478;8.936;2022-10-16T03:43:34;3.73;;;1.83;;
15342;SDS011;7771;48.478;8.936;2022-10-16T03:46:01;1.57;;;1.47;;
15342;SDS011;7771;48.478;8.936;2022-10-16T03:48:27;3.60;;;1.33;;
15342;SDS011;7771;48.478;8.936;2022-10-16T03:50:54;5.93;;;1.40;;
15342;SDS011;7771;48.478;8.936;2022-10-16T03:53:22;1.93;;;1.30;;
15342;SDS011;7771;48.478;8.936;2022-10-16T03:55:48;1.47;;;1.27;;
15342;SDS011;7771;48.478;8.936;2022-10-16T03:58:15;1.97;;;1.30;;
15342;SDS011;7771;48.478;8.936;2022-10-16T04:00:43;2.73;;;1.50;;
15342;SDS011;7771;48.478;8.936;2022-10-16T04:03:09;2.63;;;1.20;;
15342;SDS011;7771;48.478;8.936;2022-10-16T04:05:36;2.90;;;1.60;;
15342;SDS011;7771;48.478;8.936;2022-10-16T04:08:02;4.70;;;1.37;;
15342;SDS011;7771;48.478;8.936;2022-10-16T04:10:29;1.37;;;1.27;;
15342;SDS011;7771;48.478;8.936;2022-10-16T04:12:55;8.20;;;1.70;;
15342;SDS011;7771;48.478;8.936;2022-10-16T04:15:23;2.37;;;1.17;;
15342;SDS011;7771;48.478;8.936;2022-10-16T04:17:49;1.90;;;1.30;;
15342;SDS011;7771;48.478;8.936;2022-10-16T04:20:15;2.90;;;2.00;;
15342;SDS011;7771;48.478;8.936;2022-10-16T04:22:42;1.67;;;1.37;;
15342;SDS011;7771;48.478;8.936;2022-10-16T04:25:09;1.80;;;1.20;;
15342;SDS011;7771;48.478;8.936;2022-10-16T04:27:35;2.20;;;1.20;;
15342;SDS011;7771;48.478;8.936;2022-10-16T04:30:02;1.70;;;1.60;;
15342;SDS011;7771;48.478;8.936;2022-10-16T04:32:29;3.90;;;1.77;;
15342;SDS011;7771;48.478;8.936;2022-10-16T04:34:56;4.83;;;1.73;;
15342;SDS011;7771;48.478;8.936;2022-10-16T04:37:24;5.43;;;1.90;;
15342;SDS011;7771;48.478;8.936;2022-10-16T04:39:51;5.57;;;2.03;;
15342;SDS011;7771;48.478;8.936;2022-10-16T04:42:18;3.70;;;1.73;;
15342;SDS011;7771;48.478;8.936;2022-10-16T04:44:45;2.40;;;1.50;;
15342;SDS011;7771;48.478;8.936;2022-10-16T04:47:11;3.20;;;1.80;;
15342;SDS011;7771;48.478;8.936;2022-10-16T04:49:38;3.00;;;1.70;;
15342;SDS011;7771;48.478;8.936;2022-10-16T04:52:04;1.67;;;1.57;;
15342;SDS011;7771;48.478;8.936;2022-10-16T04:54:31;1.50;;;1.40;;
15342;SDS011;7771;48.478;8.936;2022-10-16T04:56:58;1.70;;;1.50;;
15342;SDS011;7771;48.478;8.936;2022-10-16T04:59:25;2.97;;;1.73;;
15342;SDS011;7771;48.478;8.936;2022-10-16T05:01:52;2.80;;;1.37;;
15342;SDS011;7771;48.478;8.936;2022-10-16T05:04:19;5.37;;;1.77;;
15342;SDS011;7771;48.478;8.936;2022-10-16T05:06:47;4.33;;;2.20;;
15342;SDS011;7771;48.478;8.936;2022-10-16T05:09:14;3.00;;;2.30;;
15342;SDS011;7771;48.478;8.936;2022-10-16T05:11:41;4.73;;;3.53;;
15342;SDS011;7771;48.478;8.936;2022-10-16T05:14:09;6.40;;;3.90;;
15342;SDS011;7771;48.478;8.936;2022-10-16T05:16:36;4.97;;;2.90;;
15342;SDS011;7771;48.478;8.936;2022-10-16T05:19:02;5.73;;;2.70;;
15342;SDS011;7771;48.478;8.936;2022-10-16T05:21:29;5.80;;;3.67;;
15342;SDS011;7771;48.478;8.936;2022-10-16T05:23:56;7.10;;;3.80;;
15342;SDS011;7771;48.478;8.936;2022-10-16T05:26:22;5.53;;;3.50;;
15342;SDS011;7771;48.478;8.936;2022-10-16T05:28:49;5.43;;;2.83;;
15342;SDS011;7771;48.478;8.936;2022-10-16T05:31:16;2.83;;;2.13;;
15342;SDS011;7771;48.478;8.936;2022-10-16T05:33:42;3.60;;;1.87;;
15342;SDS011;7771;48.478;8.936;2022-10-16T05:36:10;3.67;;;2.00;;
15342;SDS011;7771;48.478;8.936;2022-10-16T05:38:37;3.00;;;2.60;;
15342;SDS011;7771;48.478;8.936;2022-10-16T05:41:04;3.97;;;3.10;;
15342;SDS011;7771;48.478;8.936;2022-10-16T05:43:31;4.63;;;2.90;;
15342;SDS011;7771;48.478;8.936;2022-10-16T05:45:59;4.10;;;2.77;;
15342;SDS011;7771;48.478;8.936;2022-10-16T05:48:25;4.33;;;2.73;;
15342;SDS011;7771;48.478;8.936;2022-10-16T05:53:27;3.40;;;2.07;;
15342;SDS011;7771;48.478;8.936;2022-10-16T05:55:54;4.27;;;2.97;;
15342;SDS011;7771;48.478;8.936;2022-10-16T05:58:20;3.73;;;3.00;;
15342;SDS011;7771;48.478;8.936;2022-10-16T06:00:53;5.83;;;2.43;;
15342;SDS011;7771;48.478;8.936;2022-10-16T06:03:22;2.73;;;2.47;;
15342;SDS011;7771;48.478;8.936;2022-10-16T06:05:48;4.13;;;2.37;;
15342;SDS011;7771;48.478;8.936;2022-10-16T06:08:15;2.27;;;2.03;;
15342;SDS011;7771;48.478;8.936;2022-10-16T06:10:43;4.30;;;2.47;;
15342;SDS011;7771;48.478;8.936;2022-10-16T06:13:09;2.57;;;2.13;;
15342;SDS011;7771;48.478;8.936;2022-10-16T06:15:37;3.47;;;3.17;;
15342;SDS011;7771;48.478;8.936;2022-10-16T06:18:04;3.93;;;3.57;;
15342;SDS011;7771;48.478;8.936;2022-10-16T06:20:31;4.43;;;3.30;;
15342;SDS011;7771;48.478;8.936;2022-10-16T06:22:58;3.10;;;2.90;;
15342;SDS011;7771;48.478;8.936;2022-10-16T06:25:25;2.70;;;2.37;;
15342;SDS011;7771;48.478;8.936;2022-10-16T06:27:52;9.37;;;4.60;;
15342;SDS011;7771;48.478;8.936;2022-10-16T06:30:19;5.37;;;4.73;;
15342;SDS011;7771;48.478;8.936;2022-10-16T06:32:46;5.17;;;3.87;;
15342;SDS011;7771;48.478;8.936;2022-10-16T06:35:14;4.70;;;4.20;;
15342;SDS011;7771;48.478;8.936;2022-10-16T06:37:41;7.90;;;4.30;;
15342;SDS011;7771;48.478;8.936;2022-10-16T06:40:08;4.60;;;4.07;;
15342;SDS011;7771;48.478;8.936;2022-10-16T06:42:35;5.00;;;3.60;;
15342;SDS011;7771;48.478;8.936;2022-10-16T06:45:02;6.50;;;3.83;;
15342;SDS011;7771;48.478;8.936;2022-10-16T06:47:28;6.03;;;4.53;;
15342;SDS011;7771;48.478;8.936;2022-10-16T06:49:56;7.17;;;4.37;;
15342;SDS011;7771;48.478;8.936;2022-10-16T06:52:22;5.60;;;3.33;;
15342;SDS011;7771;48.478;8.936;2022-10-16T06:54:49;3.80;;;2.93;;
15342;SDS011;7771;48.478;8.936;2022-10-16T06:57:15;3.70;;;2.70;;
15342;SDS011;7771;48.478;8.936;2022-10-16T06:59:42;2.83;;;2.40;;
15342;SDS011;7771;48.478;8.936;2022-10-16T07:02:09;11.23;;;3.40;;
15342;SDS011;7771;48.478;8.936;2022-10-16T07:04:35;5.03;;;3.17;;
15342;SDS011;7771;48.478;8.936;2022-10-16T07:07:02;8.13;;;4.70;;
15342;SDS011;7771;48.478;8.936;2022-10-16T07:09:28;8.77;;;4.77;;
15342;SDS011;7771;48.478;8.936;2022-10-16T07:11:55;10.00;;;6.37;;
15342;SDS011;7771;48.478;8.936;2022-10-16T07:14:22;6.40;;;5.30;;
15342;SDS011;7771;48.478;8.936;2022-10-16T07:16:50;10.63;;;6.23;;
15342;SDS011;7771;48.478;8.936;2022-10-16T07:19:17;9.10;;;5.80;;
15342;SDS011;7771;48.478;8.936;2022-10-16T07:21:44;10.83;;;5.03;;
15342;SDS011;7771;48.478;8.936;2022-10-16T07:24:13;7.40;;;4.83;;
15342;SDS011;7771;48.478;8.936;2022-10-16T07:26:39;5.67;;;4.40;;
15342;SDS011;7771;48.478;8.936;2022-10-16T07:29:07;5.73;;;3.50;;
15342;SDS011;7771;48.478;8.936;2022-10-16T07:31:34;5.27;;;3.03;;
15342;SDS011;7771;48.478;8.936;2022-10-16T07:34:01;4.83;;;2.90;;
15342;SDS011;7771;48.478;8.936;2022-10-16T07:36:29;4.90;;;2.70;;
15342;SDS011;7771;48.478;8.936;2022-10-16T07:38:55;2.73;;;2.37;;
15342;SDS011;7771;48.478;8.936;2022-10-16T07:41:22;4.30;;;2.20;;
15342;SDS011;7771;48.478;8.936;2022-10-16T07:43:49;4.77;;;2.23;;
15342;SDS011;7771;48.478;8.936;2022-10-16T07:46:15;9.27;;;2.50;;
15342;SDS011;7771;48.478;8.936;2022-10-16T07:48:42;3.33;;;2.30;;
15342;SDS011;7771;48.478;8.936;2022-10-16T07:51:08;4.87;;;2.33;;
15342;SDS011;7771;48.478;8.936;2022-10-16T07:53:35;3.77;;;2.17;;
15342;SDS011;7771;48.478;8.936;2022-10-16T07:56:03;3.37;;;2.60;;
15342;SDS011;7771;48.478;8.936;2022-10-16T07:58:28;5.27;;;3.50;;
15342;SDS011;7771;48.478;8.936;2022-10-16T08:00:55;9.43;;;3.27;;
15342;SDS011;7771;48.478;8.936;2022-10-16T08:03:22;6.28;;;3.10;;
15342;SDS011;7771;48.478;8.936;2022-10-16T08:05:48;4.83;;;3.30;;
15342;SDS011;7771;48.478;8.936;2022-10-16T08:08:16;5.90;;;3.70;;
15342;SDS011;7771;48.478;8.936;2022-10-16T08:10:43;5.23;;;3.90;;
15342;SDS011;7771;48.478;8.936;2022-10-16T08:13:10;4.43;;;4.00;;
15342;SDS011;7771;48.478;8.936;2022-10-16T08:15:37;7.35;;;3.97;;
15342;SDS011;7771;48.478;8.936;2022-10-16T08:18:05;5.10;;;4.03;;
15342;SDS011;7771;48.478;8.936;2022-10-16T08:20:32;5.83;;;4.23;;
15342;SDS011;7771;48.478;8.936;2022-10-16T08:23:00;6.63;;;4.50;;
15342;SDS011;7771;48.478;8.936;2022-10-16T08:25:26;5.22;;;3.92;;
15342;SDS011;7771;48.478;8.936;2022-10-16T08:27:53;6.47;;;4.20;;
15342;SDS011;7771;48.478;8.936;2022-10-16T08:30:20;5.32;;;4.65;;
15342;SDS011;7771;48.478;8.936;2022-10-16T08:32:46;8.00;;;4.62;;
15342;SDS011;7771;48.478;8.936;2022-10-16T08:35:13;7.13;;;4.43;;
15342;SDS011;7771;48.478;8.936;2022-10-16T08:37:39;5.40;;;4.20;;
15342;SDS011;7771;48.478;8.936;2022-10-16T08:40:07;7.15;;;4.50;;
15342;SDS011;7771;48.478;8.936;2022-10-16T08:45:12;4.22;;;3.83;;
15342;SDS011;7771;48.478;8.936;2022-10-16T08:47:43;6.22;;;4.25;;
15342;SDS011;7771;48.478;8.936;2022-10-16T08:52:34;8.00;;;4.40;;
15342;SDS011;7771;48.478;8.936;2022-10-16T08:54:59;6.40;;;3.80;;
15342;SDS011;7771;48.478;8.936;2022-10-16T08:57:26;5.37;;;4.25;;
15342;SDS011;7771;48.478;8.936;2022-10-16T08:59:54;5.47;;;3.97;;
15342;SDS011;7771;48.478;8.936;2022-10-16T09:02:26;5.03;;;3.83;;
15342;SDS011;7771;48.478;8.936;2022-10-16T09:07:30;5.40;;;3.47;;
15342;SDS011;7771;48.478;8.936;2022-10-16T09:10:09;4.50;;;3.78;;
15342;SDS011;7771;48.478;8.936;2022-10-16T09:15:35;3.75;;;3.45;;
15342;SDS011;7771;48.478;8.936;2022-10-16T09:18:06;7.55;;;3.58;;
15342;SDS011;7771;48.478;8.936;2022-10-16T09:20:42;4.60;;;3.40;;
15342;SDS011;7771;48.478;8.936;2022-10-16T09:23:14;4.72;;;3.35;;
15342;SDS011;7771;48.478;8.936;2022-10-16T09:25:44;3.65;;;2.92;;
15342;SDS011;7771;48.478;8.936;2022-10-16T09:28:10;3.40;;;3.08;;
15342;SDS011;7771;48.478;8.936;2022-10-16T09:30:37;7.47;;;3.85;;
15342;SDS011;7771;48.478;8.936;2022-10-16T09:33:04;7.07;;;4.28;;
15342;SDS011;7771;48.478;8.936;2022-10-16T09:35:39;8.13;;;5.62;;
15342;SDS011;7771;48.478;8.936;2022-10-16T09:38:06;8.20;;;4.93;;
15342;SDS011;7771;48.478;8.936;2022-10-16T09:40:36;5.22;;;4.03;;
15342;SDS011;7771;48.478;8.936;2022-10-16T09:43:05;4.50;;;3.45;;
15342;SDS011;7771;48.478;8.936;2022-10-16T09:45:34;6.72;;;3.83;;
15342;SDS011;7771;48.478;8.936;2022-10-16T09:48:01;5.30;;;4.07;;
15342;SDS011;7771;48.478;8.936;2022-10-16T09:50:28;6.78;;;3.50;;
15342;SDS011;7771;48.478;8.936;2022-10-16T09:55:28;4.90;;;2.90;;
15342;SDS011;7771;48.478;8.936;2022-10-16T09:57:55;4.03;;;2.78;;
15342;SDS011;7771;48.478;8.936;2022-10-16T10:00:23;5.18;;;3.87;;
15342;SDS011;7771;48.478;8.936;2022-10-16T10:02:49;4.07;;;2.95;;
15342;SDS011;7771;48.478;8.936;2022-10-16T10:05:19;5.40;;;3.50;;
15342;SDS011;7771;48.478;8.936;2022-10-16T10:07:45;5.43;;;3.28;;
15342;SDS011;7771;48.478;8.936;2022-10-16T10:12:45;4.53;;;2.90;;
15342;SDS011;7771;48.478;8.936;2022-10-16T10:15:12;4.07;;;2.80;;
15342;SDS011;7771;48.478;8.936;2022-10-16T10:17:45;3.45;;;2.83;;
15342;SDS011;7771;48.478;8.936;2022-10-16T10:20:22;4.62;;;2.40;;
15342;SDS011;7771;48.478;8.936;2022-10-16T10:22:57;4.50;;;3.22;;
15342;SDS011;7771;48.478;8.936;2022-10-16T10:25:31;2.78;;;2.25;;
15342;SDS011;7771;48.478;8.936;2022-10-16T10:30:41;6.03;;;2.87;;
15342;SDS011;7771;48.478;8.936;2022-10-16T10:33:16;2.78;;;2.17;;
15342;SDS011;7771;48.478;8.936;2022-10-16T10:35:44;2.95;;;1.87;;
15342;SDS011;7771;48.478;8.936;2022-10-16T10:38:16;2.95;;;2.35;;
15342;SDS011;7771;48.478;8.936;2022-10-16T10:40:55;3.08;;;2.22;;
15342;SDS011;7771;48.478;8.936;2022-10-16T10:46:23;3.72;;;2.67;;
15342;SDS011;7771;48.478;8.936;2022-10-16T10:48:52;4.62;;;3.12;;
15342;SDS011;7771;48.478;8.936;2022-10-16T10:51:20;2.97;;;2.08;;
15342;SDS011;7771;48.478;8.936;2022-10-16T10:53:56;5.18;;;2.60;;
15342;SDS011;7771;48.478;8.936;2022-10-16T10:56:41;2.53;;;1.40;;
15342;SDS011;7771;48.478;8.936;2022-10-16T10:59:25;1.23;;;1.12;;
15342;SDS011;7771;48.478;8.936;2022-10-16T11:01:56;3.20;;;1.60;;
15342;SDS011;7771;48.478;8.936;2022-10-16T11:07:04;2.90;;;2.03;;
15342;SDS011;7771;48.478;8.936;2022-10-16T11:09:34;0.70;;;0.70;;
15342;SDS011;7771;48.478;8.936;2022-10-16T11:12:07;3.05;;;1.40;;
15342;SDS011;7771;48.478;8.936;2022-10-16T11:14:36;2.75;;;1.12;;
15342;SDS011;7771;48.478;8.936;2022-10-16T11:17:03;2.03;;;1.20;;
15342;SDS011;7771;48.478;8.936;2022-10-16T11:19:34;1.67;;;1.20;;
15342;SDS011;7771;48.478;8.936;2022-10-16T11:22:01;2.15;;;1.95;;
15342;SDS011;7771;48.478;8.936;2022-10-16T11:24:35;1.40;;;1.30;;
15342;SDS011;7771;48.478;8.936;2022-10-16T11:26:59;3.55;;;1.30;;
15342;SDS011;7771;48.478;8.936;2022-10-16T11:29:28;3.15;;;1.35;;
15342;SDS011;7771;48.478;8.936;2022-10-16T11:31:59;1.62;;;1.20;;
15342;SDS011;7771;48.478;8.936;2022-10-16T11:34:32;1.50;;;1.40;;
15342;SDS011;7771;48.478;8.936;2022-10-16T11:37:12;1.87;;;0.98;;
15342;SDS011;7771;48.478;8.936;2022-10-16T11:39:38;2.95;;;1.20;;
15342;SDS011;7771;48.478;8.936;2022-10-16T11:42:08;1.65;;;1.02;;
15342;SDS011;7771;48.478;8.936;2022-10-16T11:44:41;4.68;;;2.33;;
15342;SDS011;7771;48.478;8.936;2022-10-16T11:47:09;4.80;;;1.40;;
15342;SDS011;7771;48.478;8.936;2022-10-16T11:49:34;2.03;;;1.25;;
15342;SDS011;7771;48.478;8.936;2022-10-16T11:52:05;3.67;;;1.33;;
15342;SDS011;7771;48.478;8.936;2022-10-16T11:54:45;1.77;;;1.30;;
15342;SDS011;7771;48.478;8.936;2022-10-16T11:57:20;1.60;;;1.35;;
15342;SDS011;7771;48.478;8.936;2022-10-16T11:59:51;4.32;;;1.30;;
15342;SDS011;7771;48.478;8.936;2022-10-16T12:02:30;3.00;;;1.12;;
15342;SDS011;7771;48.478;8.936;2022-10-16T12:07:48;5.12;;;1.17;;
15342;SDS011;7771;48.478;8.936;2022-10-16T12:10:28;2.83;;;1.30;;
15342;SDS011;7771;48.478;8.936;2022-10-16T12:12:54;2.15;;;1.55;;
15342;SDS011;7771;48.478;8.936;2022-10-16T12:15:23;2.08;;;1.45;;
15342;SDS011;7771;48.478;8.936;2022-10-16T12:17:47;2.30;;;1.40;;
15342;SDS011;7771;48.478;8.936;2022-10-16T12:20:23;1.77;;;1.20;;
15342;SDS011;7771;48.478;8.936;2022-10-16T12:22:55;3.72;;;1.30;;
15342;SDS011;7771;48.478;8.936;2022-10-16T12:25:21;5.65;;;2.08;;
15342;SDS011;7771;48.478;8.936;2022-10-16T12:27:56;2.40;;;1.23;;
15342;SDS011;7771;48.478;8.936;2022-10-16T12:30:23;3.58;;;2.10;;
15342;SDS011;7771;48.478;8.936;2022-10-16T12:32:55;2.40;;;1.83;;
15342;SDS011;7771;48.478;8.936;2022-10-16T12:35:21;1.90;;;1.55;;
15342;SDS011;7771;48.478;8.936;2022-10-16T12:37:52;1.30;;;1.20;;
15342;SDS011;7771;48.478;8.936;2022-10-16T12:40:24;2.25;;;1.52;;
15342;SDS011;7771;48.478;8.936;2022-10-16T12:42:50;1.77;;;1.48;;
15342;SDS011;7771;48.478;8.936;2022-10-16T12:45:26;1.95;;;1.40;;
15342;SDS011;7771;48.478;8.936;2022-10-16T12:47:53;1.58;;;1.48;;
15342;SDS011;7771;48.478;8.936;2022-10-16T12:50:23;2.50;;;1.37;;
15342;SDS011;7771;48.478;8.936;2022-10-16T12:52:52;2.67;;;1.40;;
15342;SDS011;7771;48.478;8.936;2022-10-16T12:55:20;1.83;;;1.50;;
15342;SDS011;7771;48.478;8.936;2022-10-16T12:58:00;2.20;;;1.70;;
15342;SDS011;7771;48.478;8.936;2022-10-16T13:00:40;2.12;;;1.50;;
15342;SDS011;7771;48.478;8.936;2022-10-16T13:09:05;2.80;;;1.80;;
15342;SDS011;7771;48.478;8.936;2022-10-16T13:11:37;9.50;;;2.72;;
15342;SDS011;7771;48.478;8.936;2022-10-16T13:16:50;5.03;;;2.00;;
15342;SDS011;7771;48.478;8.936;2022-10-16T13:19:24;1.98;;;1.75;;
15342;SDS011;7771;48.478;8.936;2022-10-16T13:22:08;3.70;;;2.40;;
15342;SDS011;7771;48.478;8.936;2022-10-16T13:27:10;2.37;;;1.52;;
15342;SDS011;7771;48.478;8.936;2022-10-16T13:29:36;2.40;;;1.70;;
15342;SDS011;7771;48.478;8.936;2022-10-16T13:32:07;3.47;;;2.97;;
15342;SDS011;7771;48.478;8.936;2022-10-16T13:34:31;3.33;;;2.00;;
15342;SDS011;7771;48.478;8.936;2022-10-16T13:36:58;3.10;;;1.90;;
15342;SDS011;7771;48.478;8.936;2022-10-16T13:39:26;1.87;;;1.77;;
15342;SDS011;7771;48.478;8.936;2022-10-16T13:44:39;2.62;;;1.50;;
15342;SDS011;7771;48.478;8.936;2022-10-16T13:47:10;2.53;;;2.30;;
15342;SDS011;7771;48.478;8.936;2022-10-16T13:49:34;2.35;;;1.70;;
15342;SDS011;7771;48.478;8.936;2022-10-16T13:52:01;2.95;;;2.05;;
15342;SDS011;7771;48.478;8.936;2022-10-16T13:54:28;5.57;;;3.08;;
15342;SDS011;7771;48.478;8.936;2022-10-16T13:56:55;5.72;;;3.35;;
15342;SDS011;7771;48.478;8.936;2022-10-16T13:59:24;4.82;;;2.80;;
15342;SDS011;7771;48.478;8.936;2022-10-16T14:01:50;3.03;;;2.50;;
15342;SDS011;7771;48.478;8.936;2022-10-16T14:04:16;4.50;;;2.35;;
15342;SDS011;7771;48.478;8.936;2022-10-16T14:06:45;2.25;;;1.52;;
15342;SDS011;7771;48.478;8.936;2022-10-16T14:09:14;3.75;;;1.80;;
15342;SDS011;7771;48.478;8.936;2022-10-16T14:11:44;4.07;;;1.70;;
15342;SDS011;7771;48.478;8.936;2022-10-16T14:14:10;2.62;;;1.90;;
15342;SDS011;7771;48.478;8.936;2022-10-16T14:16:37;2.78;;;2.30;;
15342;SDS011;7771;48.478;8.936;2022-10-16T14:19:05;2.25;;;2.03;;
15342;SDS011;7771;48.478;8.936;2022-10-16T14:21:32;4.10;;;2.08;;
15342;SDS011;7771;48.478;8.936;2022-10-16T14:23:58;3.03;;;1.73;;
15342;SDS011;7771;48.478;8.936;2022-10-16T14:26:26;6.65;;;2.37;;
15342;SDS011;7771;48.478;8.936;2022-10-16T14:29:10;4.15;;;3.75;;
15342;SDS011;7771;48.478;8.936;2022-10-16T14:31:37;3.85;;;2.67;;
15342;SDS011;7771;48.478;8.936;2022-10-16T14:34:05;3.47;;;2.28;;
15342;SDS011;7771;48.478;8.936;2022-10-16T14:36:33;3.33;;;2.47;;
15342;SDS011;7771;48.478;8.936;2022-10-16T14:39:02;2.60;;;2.10;;
15342;SDS011;7771;48.478;8.936;2022-10-16T14:41:27;9.85;;;6.75;;
15342;SDS011;7771;48.478;8.936;2022-10-16T14:43:55;6.35;;;3.10;;
15342;SDS011;7771;48.478;8.936;2022-10-16T14:46:22;5.85;;;2.78;;
15342;SDS011;7771;48.478;8.936;2022-10-16T14:48:50;3.05;;;2.50;;
15342;SDS011;7771;48.478;8.936;2022-10-16T14:51:15;3.85;;;2.40;;
15342;SDS011;7771;48.478;8.936;2022-10-16T14:53:41;4.12;;;3.20;;
15342;SDS011;7771;48.478;8.936;2022-10-16T14:56:08;4.50;;;2.55;;
15342;SDS011;7771;48.478;8.936;2022-10-16T14:58:42;5.20;;;2.70;;
15342;SDS011;7771;48.478;8.936;2022-10-16T15:01:09;2.85;;;2.65;;
15342;SDS011;7771;48.478;8.936;2022-10-16T15:03:36;2.58;;;2.30;;
15342;SDS011;7771;48.478;8.936;2022-10-16T15:06:02;3.87;;;2.20;;
15342;SDS011;7771;48.478;8.936;2022-10-16T15:08:30;3.22;;;2.37;;
15342;SDS011;7771;48.478;8.936;2022-10-16T15:10:56;3.65;;;2.45;;
15342;SDS011;7771;48.478;8.936;2022-10-16T15:13:23;5.37;;;3.25;;
15342;SDS011;7771;48.478;8.936;2022-10-16T15:15:49;4.97;;;3.17;;
15342;SDS011;7771;48.478;8.936;2022-10-16T15:18:16;2.97;;;2.53;;
15342;SDS011;7771;48.478;8.936;2022-10-16T15:20:43;3.30;;;2.40;;
15342;SDS011;7771;48.478;8.936;2022-10-16T15:23:14;4.72;;;2.58;;
15342;SDS011;7771;48.478;8.936;2022-10-16T15:25:44;3.83;;;2.55;;
15342;SDS011;7771;48.478;8.936;2022-10-16T15:28:11;3.30;;;2.60;;
15342;SDS011;7771;48.478;8.936;2022-10-16T15:30:38;4.45;;;3.37;;
15342;SDS011;7771;48.478;8.936;2022-10-16T15:33:05;8.30;;;5.05;;
15342;SDS011;7771;48.478;8.936;2022-10-16T15:35:31;4.18;;;3.25;;
15342;SDS011;7771;48.478;8.936;2022-10-16T15:37:58;6.82;;;3.92;;
15342;SDS011;7771;48.478;8.936;2022-10-16T15:40:24;10.57;;;5.40;;
15342;SDS011;7771;48.478;8.936;2022-10-16T15:42:51;10.40;;;5.87;;
15342;SDS011;7771;48.478;8.936;2022-10-16T15:45:18;7.82;;;5.80;;
15342;SDS011;7771;48.478;8.936;2022-10-16T15:47:45;7.85;;;5.90;;
15342;SDS011;7771;48.478;8.936;2022-10-16T15:50:12;7.07;;;4.07;;
15342;SDS011;7771;48.478;8.936;2022-10-16T15:52:39;4.03;;;3.10;;